createdAt,value
2018-02-07T00:00:56.827Z,80.07
2018-02-07T00:01:56.611Z,80.32
2018-02-07T00:02:56.857Z,80.41
2018-02-07T00:03:56.615Z,80.41
2018-02-07T00:04:56.627Z,80.51
2018-02-07T00:05:56.640Z,80.69
2018-02-07T00:06:56.650Z,80.98
2018-02-07T00:07:56.913Z,80.98
2018-02-07T00:08:56.679Z,81.74
2018-02-07T00:09:56.689Z,81.55
2018-02-07T00:10:56.950Z,81.64
2018-02-07T00:11:56.711Z,81.93
2018-02-07T00:12:56.724Z,82.02
2018-02-07T00:13:57.039Z,81.74
2018-02-07T00:14:57.101Z,81.74
2018-02-07T00:15:56.770Z,82.4
2018-02-07T00:16:56.793Z,82.31
2018-02-07T00:17:56.784Z,82.5
2018-02-07T00:18:56.796Z,82.59
2018-02-07T00:19:57.058Z,82.87
2018-02-07T00:20:57.068Z,82.5
2018-02-07T00:21:57.080Z,82.87
2018-02-07T00:22:57.088Z,83.34
2018-02-07T00:23:57.102Z,83.44
2018-02-07T00:24:56.864Z,83.44
2018-02-07T00:25:56.878Z,82.68
2018-02-07T00:26:56.890Z,82.87
2018-02-07T00:27:57.154Z,82.59
2018-02-07T00:28:57.213Z,83.02
2018-02-07T00:29:56.963Z,83.49
2018-02-07T00:30:57.184Z,83.4
2018-02-07T00:31:57.194Z,83.25
2018-02-07T00:32:56.955Z,83.02
2018-02-07T00:33:57.216Z,83.63
2018-02-07T00:34:57.230Z,83.34
2018-02-07T00:35:56.991Z,83.06
2018-02-07T00:36:57.254Z,83.44
2018-02-07T00:37:57.268Z,82.68
2018-02-07T00:38:57.281Z,82.68
2018-02-07T00:39:57.298Z,82.68
2018-02-07T00:40:57.302Z,83.25
2018-02-07T00:41:57.065Z,82.68
2018-02-07T00:42:57.327Z,82.5
2018-02-07T00:43:57.393Z,82.78
2018-02-07T00:44:57.350Z,82.87
2018-02-07T00:45:57.109Z,82.78
2018-02-07T00:46:57.378Z,82.73
2018-02-07T00:47:57.383Z,83.21
2018-02-07T00:48:57.396Z,83.34
2018-02-07T00:49:57.157Z,82.68
2018-02-07T00:50:57.172Z,82.97
2018-02-07T00:51:57.433Z,82.78
2018-02-07T00:52:57.194Z,82.59
2018-02-07T00:53:57.453Z,82.12
2018-02-07T00:54:57.213Z,82.5
2018-02-07T00:55:57.478Z,82.31
2018-02-07T00:56:57.490Z,82.4
2018-02-07T00:57:57.499Z,82.31
2018-02-07T00:58:57.563Z,82.02
2018-02-07T00:59:57.269Z,82.4
2018-02-07T01:00:57.540Z,82.21
2018-02-07T01:01:57.547Z,82.87
2018-02-07T01:02:57.560Z,82.92
2018-02-07T01:03:57.322Z,82.68
2018-02-07T01:04:57.585Z,83.21
2018-02-07T01:05:57.614Z,83.44
2018-02-07T01:06:57.354Z,82.97
2018-02-07T01:07:57.627Z,83.06
2018-02-07T01:08:57.380Z,82.4
2018-02-07T01:09:57.641Z,82.87
2018-02-07T01:10:57.653Z,82.31
2018-02-07T01:11:57.667Z,82.21
2018-02-07T01:12:57.432Z,81.83
2018-02-07T01:13:57.740Z,81.64
2018-02-07T01:14:57.700Z,82.12
2018-02-07T01:15:57.468Z,82.12
2018-02-07T01:16:57.720Z,81.36
2018-02-07T01:17:57.483Z,82.31
2018-02-07T01:18:57.500Z,82.4
2018-02-07T01:19:57.758Z,83.4
2018-02-07T01:20:57.771Z,83.11
2018-02-07T01:21:57.784Z,83.21
2018-02-07T01:22:57.792Z,83.53
2018-02-07T01:23:57.808Z,82.87
2018-02-07T01:24:57.818Z,83.49
2018-02-07T01:25:57.827Z,83.78
2018-02-07T01:26:57.589Z,84.06
2018-02-07T01:27:57.613Z,83.97
2018-02-07T01:28:57.615Z,84.06
2018-02-07T01:29:57.676Z,84.16
2018-02-07T01:30:57.885Z,84.06
2018-02-07T01:31:57.898Z,83.78
2018-02-07T01:32:57.918Z,84.44
2018-02-07T01:33:57.922Z,84.16
2018-02-07T01:34:57.682Z,84.06
2018-02-07T01:35:57.693Z,84.16
2018-02-07T01:36:57.957Z,83.87
2018-02-07T01:37:58.005Z,83.87
2018-02-07T01:38:57.729Z,83.97
2018-02-07T01:39:57.739Z,84.16
2018-02-07T01:40:58.001Z,83.87
2018-02-07T01:41:58.012Z,83.87
2018-02-07T01:42:57.774Z,84.06
2018-02-07T01:43:58.050Z,84.06
2018-02-07T01:44:57.846Z,84.44
2018-02-07T01:45:58.061Z,84.44
2018-02-07T01:46:58.072Z,84.63
2018-02-07T01:47:58.086Z,84.34
2018-02-07T01:48:58.093Z,84.72
2018-02-07T01:49:57.855Z,84.81
2018-02-07T01:50:58.121Z,84.25
2018-02-07T01:51:58.130Z,84.44
2018-02-07T01:52:58.202Z,84.91
2018-02-07T01:53:58.154Z,84.16
2018-02-07T01:54:57.913Z,84.25
2018-02-07T01:55:58.174Z,83.3
2018-02-07T01:56:57.935Z,83.97
2018-02-07T01:57:58.204Z,83.68
2018-02-07T01:58:58.217Z,83.78
2018-02-07T01:59:58.021Z,84.16
2018-02-07T02:00:57.981Z,83.4
2018-02-07T02:01:58.246Z,83.59
2018-02-07T02:02:58.006Z,83.21
2018-02-07T02:03:58.267Z,83.4
2018-02-07T02:04:58.285Z,83.4
2018-02-07T02:05:58.040Z,83.87
2018-02-07T02:06:58.052Z,83.87
2018-02-07T02:07:58.334Z,83.49
2018-02-07T02:08:58.074Z,83.87
2018-02-07T02:09:58.543Z,83.59
2018-02-07T02:10:58.096Z,83.15
2018-02-07T02:11:58.109Z,83.53
2018-02-07T02:12:58.119Z,83.44
2018-02-07T02:13:58.386Z,83.53
2018-02-07T02:14:58.191Z,82.97
2018-02-07T02:15:58.154Z,82.87
2018-02-07T02:16:58.180Z,82.59
2018-02-07T02:17:58.429Z,82.5
2018-02-07T02:18:58.186Z,82.59
2018-02-07T02:19:58.459Z,82.78
2018-02-07T02:20:58.464Z,82.78
2018-02-07T02:21:58.475Z,82.87
2018-02-07T02:22:58.486Z,82.97
2018-02-07T02:23:58.249Z,82.68
2018-02-07T02:24:58.515Z,82.83
2018-02-07T02:25:58.522Z,82.78
2018-02-07T02:26:58.533Z,83.21
2018-02-07T02:27:58.294Z,83.4
2018-02-07T02:28:58.557Z,84.16
2018-02-07T02:29:58.373Z,84.34
2018-02-07T02:30:58.327Z,84.34
2018-02-07T02:31:58.341Z,84.63
2018-02-07T02:32:58.348Z,84.53
2018-02-07T02:33:58.612Z,84.72
2018-02-07T02:34:58.624Z,83.97
2018-02-07T02:35:58.637Z,84.44
2018-02-07T02:36:58.395Z,84.34
2018-02-07T02:37:58.658Z,83.87
2018-02-07T02:38:58.671Z,83.97
2018-02-07T02:39:58.680Z,83.87
2018-02-07T02:40:58.691Z,84.63
2018-02-07T02:41:58.702Z,84.72
2018-02-07T02:42:58.715Z,84.63
2018-02-07T02:43:58.475Z,84.34
2018-02-07T02:44:58.783Z,84.53
2018-02-07T02:45:58.496Z,84.72
2018-02-07T02:46:58.510Z,84.25
2018-02-07T02:47:58.772Z,83.87
2018-02-07T02:48:58.787Z,84.25
2018-02-07T02:49:58.797Z,84.25
2018-02-07T02:50:58.804Z,83.78
2018-02-07T02:51:58.825Z,84.06
2018-02-07T02:52:58.827Z,83.87
2018-02-07T02:53:58.590Z,83.78
2018-02-07T02:54:58.871Z,83.97
2018-02-07T02:55:58.612Z,83.97
2018-02-07T02:56:58.880Z,83.78
2018-02-07T02:57:58.893Z,83.82
2018-02-07T02:58:58.903Z,83.68
2018-02-07T02:59:58.708Z,83.53
2018-02-07T03:00:58.669Z,82.97
2018-02-07T03:01:58.682Z,83.15
2018-02-07T03:02:58.690Z,83.25
2018-02-07T03:03:58.953Z,82.97
2018-02-07T03:04:58.964Z,83.15
2018-02-07T03:05:58.973Z,83.3
2018-02-07T03:06:58.736Z,83.91
2018-02-07T03:07:58.999Z,83.91
2018-02-07T03:08:59.018Z,83.87
2018-02-07T03:09:58.768Z,84.06
2018-02-07T03:10:58.781Z,84.44
2018-02-07T03:11:58.794Z,84.44
2018-02-07T03:12:59.053Z,84.72
2018-02-07T03:13:58.817Z,84.53
2018-02-07T03:14:58.884Z,84.63
2018-02-07T03:15:58.839Z,85.1
2018-02-07T03:16:59.102Z,84.91
2018-02-07T03:17:58.860Z,85
2018-02-07T03:18:59.132Z,84.53
2018-02-07T03:19:59.132Z,84.63
2018-02-07T03:20:58.894Z,84.53
2018-02-07T03:21:59.152Z,84.53
2018-02-07T03:22:59.166Z,84.53
2018-02-07T03:23:58.928Z,84.34
2018-02-07T03:24:58.940Z,84.91
2018-02-07T03:25:59.199Z,85.1
2018-02-07T03:26:58.962Z,84.81
2018-02-07T03:27:59.222Z,84.91
2018-02-07T03:28:59.242Z,85.1
2018-02-07T03:29:59.050Z,85.1
2018-02-07T03:30:59.266Z,85.28
2018-02-07T03:31:59.272Z,85.1
2018-02-07T03:32:59.282Z,84.72
2018-02-07T03:33:59.295Z,84.58
2018-02-07T03:34:59.411Z,83.91
2018-02-07T03:35:59.324Z,83.82
2018-02-07T03:36:59.337Z,84.1
2018-02-07T03:37:59.345Z,83.63
2018-02-07T03:38:59.354Z,83.34
2018-02-07T03:39:59.114Z,83.25
2018-02-07T03:40:59.374Z,83.25
2018-02-07T03:41:59.136Z,83.34
2018-02-07T03:42:59.398Z,83.06
2018-02-07T03:43:59.421Z,83.34
2018-02-07T03:44:59.219Z,83.91
2018-02-07T03:45:59.437Z,84.01
2018-02-07T03:46:59.192Z,84.01
2018-02-07T03:47:59.460Z,84.01
2018-02-07T03:48:59.470Z,83.91
2018-02-07T03:49:59.477Z,84.63
2018-02-07T03:50:59.492Z,84.63
2018-02-07T03:51:59.252Z,84.53
2018-02-07T03:52:59.262Z,84.63
2018-02-07T03:53:59.271Z,84.67
2018-02-07T03:54:59.536Z,84.58
2018-02-07T03:55:59.295Z,84.67
2018-02-07T03:56:59.316Z,84.67
2018-02-07T03:57:59.570Z,84.67
2018-02-07T03:58:59.584Z,84.39
2018-02-07T03:59:59.644Z,84.67
2018-02-07T04:00:59.608Z,84.67
2018-02-07T04:01:59.619Z,84.39
2018-02-07T04:02:59.628Z,84.58
2018-02-07T04:03:59.397Z,84.29
2018-02-07T04:04:59.651Z,84.77
2018-02-07T04:05:59.411Z,84.86
2018-02-07T04:06:59.427Z,84.67
2018-02-07T04:07:59.687Z,84.67
2018-02-07T04:08:59.701Z,85.14
2018-02-07T04:09:59.707Z,85.19
2018-02-07T04:10:59.719Z,85.24
2018-02-07T04:11:59.481Z,84.67
2018-02-07T04:12:59.492Z,84.39
2018-02-07T04:13:59.755Z,84.77
2018-02-07T04:14:59.515Z,84.39
2018-02-07T04:15:59.777Z,84.48
2018-02-07T04:16:59.790Z,84.29
2018-02-07T04:17:59.803Z,84.1
2018-02-07T04:18:59.863Z,84.29
2018-02-07T04:19:59.838Z,84.01
2018-02-07T04:20:59.838Z,84.1
2018-02-07T04:21:59.849Z,84.29
2018-02-07T04:22:59.601Z,84.29
2018-02-07T04:23:59.614Z,84.58
2018-02-07T04:24:59.627Z,84.77
2018-02-07T04:25:59.637Z,84.58
2018-02-07T04:26:59.648Z,84.67
2018-02-07T04:27:59.667Z,84.58
2018-02-07T04:28:59.930Z,84.67
2018-02-07T04:29:59.939Z,84.29
2018-02-07T04:30:59.699Z,84.58
2018-02-07T04:31:59.710Z,84.77
2018-02-07T04:32:59.976Z,84.77
2018-02-07T04:34:00.041Z,84.29
2018-02-07T04:34:59.747Z,84.67
2018-02-07T04:36:00.017Z,84.95
2018-02-07T04:37:00.021Z,85.57
2018-02-07T04:37:59.780Z,85.52
2018-02-07T04:39:00.045Z,85.52
2018-02-07T04:40:00.059Z,85.14
2018-02-07T04:40:59.817Z,84.95
2018-02-07T04:41:59.831Z,84.95
2018-02-07T04:42:59.840Z,84.95
2018-02-07T04:44:00.176Z,84.95
2018-02-07T04:45:00.115Z,85.24
2018-02-07T04:45:59.889Z,85.05
2018-02-07T04:47:00.137Z,84.95
2018-02-07T04:47:59.896Z,84.39
2018-02-07T04:49:00.212Z,84.48
2018-02-07T04:50:00.173Z,84.48
2018-02-07T04:51:00.183Z,84.58
2018-02-07T04:51:59.944Z,84.67
2018-02-07T04:52:59.955Z,84.77
2018-02-07T04:54:00.217Z,84.48
2018-02-07T04:54:59.978Z,84.58
2018-02-07T04:55:59.991Z,84.29
2018-02-07T04:57:00.254Z,83.91
2018-02-07T04:58:00.265Z,84.01
2018-02-07T04:59:00.029Z,83.63
2018-02-07T05:00:00.291Z,83.34
2018-02-07T05:01:00.301Z,83.63
2018-02-07T05:02:00.315Z,83.01
2018-02-07T05:03:00.081Z,82.72
2018-02-07T05:04:00.135Z,82.72
2018-02-07T05:05:00.349Z,82.53
2018-02-07T05:06:00.108Z,82.82
2018-02-07T05:07:00.370Z,81.96
2018-02-07T05:08:00.384Z,81.87
2018-02-07T05:09:00.401Z,82.25
2018-02-07T05:10:00.406Z,82.44
2018-02-07T05:11:00.164Z,82.34
2018-02-07T05:12:00.428Z,82.44
2018-02-07T05:13:00.442Z,82.44
2018-02-07T05:14:00.452Z,82.44
2018-02-07T05:15:00.218Z,82.44
2018-02-07T05:16:00.474Z,81.68
2018-02-07T05:17:00.483Z,82.53
2018-02-07T05:18:00.498Z,82.82
2018-02-07T05:19:00.721Z,82.53
2018-02-07T05:20:00.271Z,82.72
2018-02-07T05:21:00.287Z,83.63
2018-02-07T05:22:00.295Z,82.78
2018-02-07T05:23:00.564Z,82.91
2018-02-07T05:24:00.574Z,83.01
2018-02-07T05:25:00.585Z,82.72
2018-02-07T05:26:00.597Z,82.82
2018-02-07T05:27:00.362Z,82.63
2018-02-07T05:28:00.618Z,83.48
2018-02-07T05:29:00.379Z,83.39
2018-02-07T05:30:00.643Z,83.39
2018-02-07T05:31:00.661Z,83.39
2018-02-07T05:32:00.669Z,82.82
2018-02-07T05:33:00.680Z,82.91
2018-02-07T05:34:00.743Z,82.91
2018-02-07T05:35:00.707Z,82.63
2018-02-07T05:36:00.465Z,82.53
2018-02-07T05:37:00.734Z,82.34
2018-02-07T05:38:00.490Z,82.06
2018-02-07T05:39:00.754Z,82.34
2018-02-07T05:40:00.515Z,82.15
2018-02-07T05:41:00.776Z,81.77
2018-02-07T05:42:00.785Z,82.53
2018-02-07T05:43:00.797Z,82.34
2018-02-07T05:44:00.812Z,82.34
2018-02-07T05:45:00.574Z,82.44
2018-02-07T05:46:00.837Z,82.25
2018-02-07T05:47:00.853Z,82.44
2018-02-07T05:48:00.866Z,81.87
2018-02-07T05:49:00.672Z,82.15
2018-02-07T05:50:00.640Z,81.87
2018-02-07T05:51:00.895Z,82.34
2018-02-07T05:52:00.911Z,81.96
2018-02-07T05:53:00.669Z,81.96
2018-02-07T05:54:00.932Z,82.06
2018-02-07T05:55:00.943Z,82.06
2018-02-07T05:56:00.957Z,81.87
2018-02-07T05:57:00.722Z,81.96
2018-02-07T05:58:00.983Z,82.06
2018-02-07T05:59:00.738Z,82.25
2018-02-07T06:00:00.750Z,81.77
2018-02-07T06:01:01.025Z,82.15
2018-02-07T06:02:01.031Z,82.34
2018-02-07T06:03:00.788Z,81.96
2018-02-07T06:04:01.049Z,82.44
2018-02-07T06:05:01.061Z,82.25
2018-02-07T06:06:00.872Z,81.59
2018-02-07T06:07:01.090Z,81.87
2018-02-07T06:08:01.102Z,81.68
2018-02-07T06:09:00.860Z,81.96
2018-02-07T06:10:00.871Z,82.63
2018-02-07T06:11:01.134Z,82.25
2018-02-07T06:12:00.894Z,82.44
2018-02-07T06:13:01.162Z,81.68
2018-02-07T06:14:01.197Z,81.77
2018-02-07T06:15:01.236Z,81.49
2018-02-07T06:16:01.201Z,82.44
2018-02-07T06:17:01.210Z,81.77
2018-02-07T06:18:01.221Z,81.68
2018-02-07T06:19:01.231Z,81.59
2018-02-07T06:20:01.244Z,82.06
2018-02-07T06:21:01.307Z,81.77
2018-02-07T06:22:01.271Z,82.06
2018-02-07T06:23:01.278Z,82.06
2018-02-07T06:24:01.291Z,82.06
2018-02-07T06:25:01.057Z,81.68
2018-02-07T06:26:01.319Z,81.87
2018-02-07T06:27:01.330Z,81.77
2018-02-07T06:28:01.342Z,81.96
2018-02-07T06:29:01.103Z,81.77
2018-02-07T06:30:01.371Z,82.06
2018-02-07T06:31:01.381Z,82.25
2018-02-07T06:32:01.390Z,82.63
2018-02-07T06:33:01.412Z,82.44
2018-02-07T06:34:01.166Z,82.44
2018-02-07T06:35:01.179Z,82.34
2018-02-07T06:36:01.239Z,82.63
2018-02-07T06:37:01.456Z,82.34
2018-02-07T06:38:01.215Z,82.53
2018-02-07T06:39:01.482Z,82.63
2018-02-07T06:40:01.261Z,82.91
2018-02-07T06:41:01.504Z,83.58
2018-02-07T06:42:01.518Z,83.29
2018-02-07T06:43:01.529Z,83.39
2018-02-07T06:44:01.290Z,82.91
2018-02-07T06:45:01.554Z,82.91
2018-02-07T06:46:01.568Z,83.01
2018-02-07T06:47:01.584Z,82.72
2018-02-07T06:48:01.340Z,82.34
2018-02-07T06:49:01.354Z,82.15
2018-02-07T06:50:01.363Z,82.63
2018-02-07T06:51:01.677Z,82.25
2018-02-07T06:52:01.390Z,82.34
2018-02-07T06:53:01.402Z,82.34
2018-02-07T06:54:01.672Z,81.77
2018-02-07T06:55:01.442Z,82.34
2018-02-07T06:56:01.742Z,82.34
2018-02-07T06:57:01.702Z,82.63
2018-02-07T06:58:01.722Z,82.44
2018-02-07T06:59:01.729Z,82.63
2018-02-07T07:00:01.488Z,82.53
2018-02-07T07:01:01.805Z,82.44
2018-02-07T07:02:01.511Z,82.44
2018-02-07T07:03:01.525Z,82.25
2018-02-07T07:04:01.536Z,81.96
2018-02-07T07:05:01.802Z,82.34
2018-02-07T07:06:01.866Z,82.34
2018-02-07T07:07:01.575Z,82.44
2018-02-07T07:08:01.586Z,81.96
2018-02-07T07:09:01.597Z,81.59
2018-02-07T07:10:01.863Z,82.06
2018-02-07T07:11:01.623Z,81.87
2018-02-07T07:12:01.635Z,82.06
2018-02-07T07:13:01.648Z,81.77
2018-02-07T07:14:01.659Z,82.06
2018-02-07T07:15:01.672Z,81.87
2018-02-07T07:16:01.937Z,81.77
2018-02-07T07:17:01.947Z,81.02
2018-02-07T07:18:01.959Z,81.12
2018-02-07T07:19:01.722Z,81.77
2018-02-07T07:20:01.734Z,81.87
2018-02-07T07:21:01.796Z,81.96
2018-02-07T07:22:01.804Z,81.21
2018-02-07T07:23:01.771Z,81.12
2018-02-07T07:24:02.035Z,81.59
2018-02-07T07:25:01.794Z,81.87
2018-02-07T07:26:01.808Z,81.34
2018-02-07T07:27:02.072Z,81.3
2018-02-07T07:28:02.084Z,81.87
2018-02-07T07:29:02.094Z,81.96
2018-02-07T07:30:01.857Z,81.12
2018-02-07T07:31:01.871Z,81.12
2018-02-07T07:32:01.882Z,81.02
2018-02-07T07:33:02.143Z,81.68
2018-02-07T07:34:02.158Z,81.87
2018-02-07T07:35:02.168Z,81.77
2018-02-07T07:36:01.980Z,81.87
2018-02-07T07:37:01.982Z,81.87
2018-02-07T07:38:02.208Z,81.02
2018-02-07T07:39:02.220Z,81.77
2018-02-07T07:40:01.981Z,81.68
2018-02-07T07:41:02.242Z,81.68
2018-02-07T07:42:02.254Z,81.68
2018-02-07T07:43:02.016Z,81.87
2018-02-07T07:44:02.282Z,81.87
2018-02-07T07:45:02.061Z,81.96
2018-02-07T07:46:02.053Z,81.77
2018-02-07T07:47:02.316Z,81.87
2018-02-07T07:48:02.328Z,81.12
2018-02-07T07:49:02.342Z,81.12
2018-02-07T07:50:02.103Z,81.87
2018-02-07T07:51:02.421Z,81.96
2018-02-07T07:52:02.384Z,81.68
2018-02-07T07:53:02.396Z,81.68
2018-02-07T07:54:02.405Z,81.77
2018-02-07T07:55:02.421Z,81.96
2018-02-07T07:56:02.179Z,81.77
2018-02-07T07:57:02.472Z,81.77
2018-02-07T07:58:02.453Z,81.44
2018-02-07T07:59:02.215Z,81.15
2018-02-07T08:00:02.261Z,81.15
2018-02-07T08:01:02.499Z,80.87
2018-02-07T08:02:02.503Z,80.87
2018-02-07T08:03:02.516Z,80.68
2018-02-07T08:04:02.278Z,81.25
2018-02-07T08:05:02.540Z,81.15
2018-02-07T08:06:03.102Z,80.96
2018-02-07T08:07:02.566Z,80.87
2018-02-07T08:08:02.586Z,80.87
2018-02-07T08:09:02.599Z,80.58
2018-02-07T08:10:02.353Z,80.3
2018-02-07T08:11:02.673Z,80.02
2018-02-07T08:12:02.634Z,80.02
2018-02-07T08:13:02.651Z,80.68
2018-02-07T08:14:02.403Z,80.21
2018-02-07T08:15:02.415Z,80.4
2018-02-07T08:16:02.429Z,80.21
2018-02-07T08:17:02.702Z,79.74
2018-02-07T08:18:02.703Z,79.55
2018-02-07T08:19:02.465Z,79.83
2018-02-07T08:20:02.752Z,80.11
2018-02-07T08:21:02.745Z,80.11
2018-02-07T08:22:02.757Z,80.3
2018-02-07T08:23:02.518Z,80.49
2018-02-07T08:24:02.781Z,80.21
2018-02-07T08:25:02.793Z,80.49
2018-02-07T08:26:02.813Z,80.87
2018-02-07T08:27:02.569Z,80.68
2018-02-07T08:28:02.579Z,80.49
2018-02-07T08:29:02.596Z,80.68
2018-02-07T08:30:02.857Z,80.49
2018-02-07T08:31:02.883Z,80.58
2018-02-07T08:32:02.884Z,81.25
2018-02-07T08:33:02.644Z,81.06
2018-02-07T08:34:02.909Z,80.49
2018-02-07T08:35:02.923Z,80.96
2018-02-07T08:36:02.930Z,80.68
2018-02-07T08:37:02.943Z,80.77
2018-02-07T08:38:02.705Z,80.96
2018-02-07T08:39:02.971Z,81.06
2018-02-07T08:40:02.982Z,81.34
2018-02-07T08:41:02.743Z,81.25
2018-02-07T08:42:03.008Z,80.87
2018-02-07T08:43:03.128Z,80.77
2018-02-07T08:44:03.052Z,80.58
2018-02-07T08:45:03.044Z,80.68
2018-02-07T08:46:03.059Z,81.44
2018-02-07T08:47:02.820Z,81.34
2018-02-07T08:48:03.085Z,81.06
2018-02-07T08:49:03.098Z,81.06
2018-02-07T08:50:03.111Z,81.15
2018-02-07T08:51:03.121Z,80.87
2018-02-07T08:52:03.132Z,80.68
2018-02-07T08:53:03.146Z,80.87
2018-02-07T08:54:03.168Z,80.96
2018-02-07T08:55:02.990Z,80.49
2018-02-07T08:56:03.185Z,80.77
2018-02-07T08:57:02.942Z,80.77
2018-02-07T08:58:02.957Z,81.44
2018-02-07T08:59:02.970Z,81.06
2018-02-07T09:00:03.235Z,82.01
2018-02-07T09:01:03.248Z,81.82
2018-02-07T09:02:03.262Z,81.82
2018-02-07T09:03:03.274Z,81.4
2018-02-07T09:04:03.283Z,82.34
2018-02-07T09:05:03.298Z,82.63
2018-02-07T09:06:03.059Z,82.82
2018-02-07T09:07:03.325Z,82.91
2018-02-07T09:08:03.343Z,82.91
2018-02-07T09:09:03.347Z,82.82
2018-02-07T09:10:03.368Z,83.01
2018-02-07T09:11:03.122Z,82.72
2018-02-07T09:12:03.409Z,82.39
2018-02-07T09:13:03.399Z,81.92
2018-02-07T09:14:03.160Z,82.1
2018-02-07T09:15:03.422Z,82.25
2018-02-07T09:16:03.183Z,81.87
2018-02-07T09:17:03.457Z,81.53
2018-02-07T09:18:03.234Z,82.1
2018-02-07T09:19:03.224Z,81.53
2018-02-07T09:20:03.483Z,81.92
2018-02-07T09:21:03.246Z,81.82
2018-02-07T09:22:03.256Z,82.01
2018-02-07T09:23:03.523Z,81.72
2018-02-07T09:24:03.539Z,81.92
2018-02-07T09:25:03.571Z,81.63
2018-02-07T09:26:03.560Z,81.25
2018-02-07T09:27:03.673Z,81.34
2018-02-07T09:28:03.337Z,81.15
2018-02-07T09:29:03.347Z,81.25
2018-02-07T09:30:03.360Z,81.06
2018-02-07T09:31:03.621Z,81.06
2018-02-07T09:32:03.641Z,81.44
2018-02-07T09:33:03.646Z,81.06
2018-02-07T09:34:03.673Z,81.34
2018-02-07T09:35:03.676Z,81.34
2018-02-07T09:36:03.689Z,80.96
2018-02-07T09:37:03.698Z,81.44
2018-02-07T09:38:03.706Z,81.06
2018-02-07T09:39:03.536Z,81.15
2018-02-07T09:40:03.734Z,81.15
2018-02-07T09:41:03.750Z,82.01
2018-02-07T09:42:03.761Z,81.25
2018-02-07T09:43:03.772Z,81.34
2018-02-07T09:44:03.786Z,81.15
2018-02-07T09:45:03.544Z,81.25
2018-02-07T09:46:03.809Z,81.06
2018-02-07T09:47:03.573Z,81.92
2018-02-07T09:48:03.834Z,81.82
2018-02-07T09:49:03.595Z,81.92
2018-02-07T09:50:03.614Z,81.53
2018-02-07T09:51:03.870Z,82.1
2018-02-07T09:52:03.882Z,81.82
2018-02-07T09:53:03.899Z,81.92
2018-02-07T09:54:03.720Z,81.92
2018-02-07T09:55:03.667Z,81.92
2018-02-07T09:56:03.681Z,81.92
2018-02-07T09:57:03.950Z,81.15
2018-02-07T09:58:03.707Z,81.25
2018-02-07T09:59:03.718Z,81.44
2018-02-07T10:00:03.989Z,81.06
2018-02-07T10:01:03.993Z,81.15
2018-02-07T10:02:04.008Z,81.06
2018-02-07T10:03:04.024Z,81.06
2018-02-07T10:04:03.780Z,81.15
2018-02-07T10:05:04.146Z,80.77
2018-02-07T10:06:03.807Z,80.68
2018-02-07T10:07:03.824Z,80.96
2018-02-07T10:08:03.853Z,81.25
2018-02-07T10:09:04.096Z,81.25
2018-02-07T10:10:03.903Z,81.34
2018-02-07T10:11:04.120Z,81.34
2018-02-07T10:12:04.136Z,81.25
2018-02-07T10:13:03.893Z,80.87
2018-02-07T10:14:04.157Z,81.06
2018-02-07T10:15:04.168Z,80.96
2018-02-07T10:16:03.928Z,80.49
2018-02-07T10:17:04.197Z,80.49
2018-02-07T10:18:03.955Z,80.21
2018-02-07T10:19:03.969Z,80.4
2018-02-07T10:20:04.332Z,80.77
2018-02-07T10:21:04.243Z,80.68
2018-02-07T10:22:04.006Z,80.68
2018-02-07T10:23:04.273Z,80.68
2018-02-07T10:24:04.030Z,80.77
2018-02-07T10:25:04.343Z,80.58
2018-02-07T10:26:04.058Z,80.4
2018-02-07T10:27:04.321Z,80.96
2018-02-07T10:28:04.080Z,80.87
2018-02-07T10:29:04.344Z,80.87
2018-02-07T10:30:04.457Z,81.06
2018-02-07T10:31:04.116Z,80.68
2018-02-07T10:32:04.383Z,81.06
2018-02-07T10:33:04.393Z,81.06
2018-02-07T10:34:04.402Z,81.06
2018-02-07T10:35:04.162Z,81.06
2018-02-07T10:36:04.180Z,81.06
2018-02-07T10:37:04.190Z,80.87
2018-02-07T10:38:04.204Z,80.96
2018-02-07T10:39:04.464Z,81.25
2018-02-07T10:40:04.530Z,80.87
2018-02-07T10:41:04.238Z,80.68
2018-02-07T10:42:04.506Z,80.68
2018-02-07T10:43:04.264Z,80.77
2018-02-07T10:44:04.529Z,80.87
2018-02-07T10:45:04.288Z,80.58
2018-02-07T10:46:04.550Z,80.68
2018-02-07T10:47:04.313Z,80.21
2018-02-07T10:48:04.579Z,80.87
2018-02-07T10:49:04.591Z,80.77
2018-02-07T10:50:04.357Z,80.21
2018-02-07T10:51:04.617Z,80.11
2018-02-07T10:52:04.625Z,80.11
2018-02-07T10:53:04.638Z,79.83
2018-02-07T10:54:04.652Z,80.21
2018-02-07T10:55:04.717Z,79.83
2018-02-07T10:56:04.676Z,80.02
2018-02-07T10:57:04.696Z,80.02
2018-02-07T10:58:04.700Z,79.83
2018-02-07T10:59:04.723Z,80.21
2018-02-07T11:00:04.728Z,80.68
2018-02-07T11:01:04.736Z,80.96
2018-02-07T11:02:04.760Z,80.58
2018-02-07T11:03:04.766Z,80.49
2018-02-07T11:04:04.777Z,80.68
2018-02-07T11:05:04.795Z,80.49
2018-02-07T11:06:04.800Z,79.93
2018-02-07T11:07:04.568Z,80.58
2018-02-07T11:08:04.820Z,80.3
2018-02-07T11:09:04.583Z,80.96
2018-02-07T11:10:04.647Z,80.68
2018-02-07T11:11:04.859Z,80.68
2018-02-07T11:12:04.622Z,81.06
2018-02-07T11:13:04.636Z,80.11
2018-02-07T11:14:04.911Z,80.21
2018-02-07T11:15:04.919Z,80.02
2018-02-07T11:16:04.923Z,79.93
2018-02-07T11:17:04.938Z,79.83
2018-02-07T11:18:04.698Z,80.11
2018-02-07T11:19:04.964Z,80.3
2018-02-07T11:20:04.973Z,80.21
2018-02-07T11:21:04.735Z,80.21
2018-02-07T11:22:05.001Z,79.45
2018-02-07T11:23:05.010Z,78.88
2018-02-07T11:24:05.025Z,79.55
2018-02-07T11:25:05.034Z,79.36
2018-02-07T11:26:04.796Z,79.45
2018-02-07T11:27:05.115Z,79.45
2018-02-07T11:28:04.821Z,79.36
2018-02-07T11:29:05.086Z,79.74
2018-02-07T11:30:05.096Z,79.64
2018-02-07T11:31:04.860Z,79.36
2018-02-07T11:32:05.121Z,79.45
2018-02-07T11:33:04.887Z,79.36
2018-02-07T11:34:05.150Z,79.74
2018-02-07T11:35:05.167Z,79.45
2018-02-07T11:36:04.922Z,79.55
2018-02-07T11:37:05.185Z,79.64
2018-02-07T11:38:04.947Z,79.45
2018-02-07T11:39:04.961Z,79.64
2018-02-07T11:40:04.977Z,79.93
2018-02-07T11:41:04.984Z,80.21
2018-02-07T11:42:05.299Z,79.93
2018-02-07T11:43:05.010Z,79.83
2018-02-07T11:44:05.273Z,79.64
2018-02-07T11:45:05.034Z,79.17
2018-02-07T11:46:05.300Z,79.17
2018-02-07T11:47:05.313Z,80.02
2018-02-07T11:48:05.324Z,80.58
2018-02-07T11:49:05.337Z,80.87
2018-02-07T11:50:05.099Z,80.68
2018-02-07T11:51:05.109Z,80.87
2018-02-07T11:52:05.122Z,81.34
2018-02-07T11:53:05.424Z,81.15
2018-02-07T11:54:05.398Z,81.34
2018-02-07T11:55:05.410Z,82.01
2018-02-07T11:56:05.423Z,82.44
2018-02-07T11:57:05.233Z,82.82
2018-02-07T11:58:05.446Z,83.39
2018-02-07T11:59:05.495Z,83.39
2018-02-07T12:00:05.471Z,83.67
2018-02-07T12:01:05.240Z,83.58
2018-02-07T12:02:05.245Z,83.39
2018-02-07T12:03:05.507Z,82.72
2018-02-07T12:04:05.530Z,82.63
2018-02-07T12:05:05.534Z,82.91
2018-02-07T12:06:05.551Z,82.82
2018-02-07T12:07:05.557Z,83.29
2018-02-07T12:08:05.319Z,83.58
2018-02-07T12:09:05.332Z,83.2
2018-02-07T12:10:05.342Z,83.76
2018-02-07T12:11:05.355Z,83.01
2018-02-07T12:12:05.670Z,82.44
2018-02-07T12:13:05.633Z,82.29
2018-02-07T12:14:05.644Z,82.48
2018-02-07T12:15:05.403Z,81.92
2018-02-07T12:16:05.672Z,81.92
2018-02-07T12:17:05.436Z,82.1
2018-02-07T12:18:05.440Z,81.92
2018-02-07T12:19:05.705Z,81.63
2018-02-07T12:20:05.465Z,81.72
2018-02-07T12:21:05.477Z,82.01
2018-02-07T12:22:05.490Z,82.01
2018-02-07T12:23:05.502Z,82.1
2018-02-07T12:24:05.767Z,81.82
2018-02-07T12:25:05.527Z,82.1
2018-02-07T12:26:05.539Z,81.44
2018-02-07T12:27:05.853Z,81.63
2018-02-07T12:28:05.565Z,81.82
2018-02-07T12:29:05.829Z,81.82
2018-02-07T12:30:05.594Z,81.63
2018-02-07T12:31:05.607Z,81.63
2018-02-07T12:32:05.711Z,82.01
2018-02-07T12:33:05.626Z,82.25
2018-02-07T12:34:05.892Z,82.25
2018-02-07T12:35:05.901Z,81.77
2018-02-07T12:36:05.913Z,82.01
2018-02-07T12:37:05.679Z,82.1
2018-02-07T12:38:05.941Z,82.67
2018-02-07T12:39:05.953Z,81.63
2018-02-07T12:40:05.714Z,82.29
2018-02-07T12:41:05.980Z,81.82
2018-02-07T12:42:06.039Z,81.82
2018-02-07T12:43:06.002Z,81.72
2018-02-07T12:44:06.015Z,82.29
2018-02-07T12:45:06.069Z,81.87
2018-02-07T12:46:05.788Z,81.92
2018-02-07T12:47:06.053Z,81.53
2018-02-07T12:48:05.813Z,81.72
2018-02-07T12:49:05.826Z,82.01
2018-02-07T12:50:05.843Z,82.44
2018-02-07T12:51:05.852Z,82.48
2018-02-07T12:52:05.912Z,82.29
2018-02-07T12:53:06.134Z,82.2
2018-02-07T12:54:06.150Z,81.63
2018-02-07T12:55:06.153Z,82.1